sensor_id;sensor_type;location;lat;lon;timestamp;temperature;humidity
46720;DHT22;32452;51.382;-0.002;2022-11-14T00:00:44;9.40;99.90
46720;DHT22;32452;51.382;-0.002;2022-11-14T00:03:30;9.30;99.90
46720;DHT22;32452;51.382;-0.002;2022-11-14T00:06:16;9.30;99.90
46720;DHT22;32452;51.382;-0.002;2022-11-14T00:09:02;9.30;99.90
46720;DHT22;32452;51.382;-0.002;2022-11-14T00:11:47;9.30;99.90
46720;DHT22;32452;51.382;-0.002;2022-11-14T00:14:33;9.30;99.90
46720;DHT22;32452;51.382;-0.002;2022-11-14T00:17:18;9.20;99.90
46720;DHT22;32452;51.382;-0.002;2022-11-14T00:20:05;9.20;99.90
46720;DHT22;32452;51.382;-0.002;2022-11-14T00:22:51;9.20;99.90
46720;DHT22;32452;51.382;-0.002;2022-11-14T00:25:36;9.20;99.90
46720;DHT22;32452;51.382;-0.002;2022-11-14T00:28:22;9.20;99.90
46720;DHT22;32452;51.382;-0.002;2022-11-14T00:31:09;9.20;99.90
46720;DHT22;32452;51.382;-0.002;2022-11-14T00:33:55;9.20;99.90
46720;DHT22;32452;51.382;-0.002;2022-11-14T00:36:40;9.20;99.90
46720;DHT22;32452;51.382;-0.002;2022-11-14T00:39:26;9.20;99.90
46720;DHT22;32452;51.382;-0.002;2022-11-14T00:42:12;9.10;99.90
46720;DHT22;32452;51.382;-0.002;2022-11-14T00:44:57;9.10;99.90
46720;DHT22;32452;51.382;-0.002;2022-11-14T00:47:44;9.10;99.90
46720;DHT22;32452;51.382;-0.002;2022-11-14T00:50:31;9.10;99.90
46720;DHT22;32452;51.382;-0.002;2022-11-14T00:53:17;9.10;99.90
46720;DHT22;32452;51.382;-0.002;2022-11-14T00:56:03;9.00;99.90
46720;DHT22;32452;51.382;-0.002;2022-11-14T00:58:48;9.00;99.90
46720;DHT22;32452;51.382;-0.002;2022-11-14T01:01:34;9.00;99.90
46720;DHT22;32452;51.382;-0.002;2022-11-14T01:04:25;9.00;99.90
46720;DHT22;32452;51.382;-0.002;2022-11-14T01:07:30;8.90;99.90
46720;DHT22;32452;51.382;-0.002;2022-11-14T01:10:16;8.90;99.90
46720;DHT22;32452;51.382;-0.002;2022-11-14T01:13:02;9.00;99.90
46720;DHT22;32452;51.382;-0.002;2022-11-14T01:15:48;9.00;99.90
46720;DHT22;32452;51.382;-0.002;2022-11-14T01:18:34;9.00;99.90
46720;DHT22;32452;51.382;-0.002;2022-11-14T01:21:20;9.10;99.90
46720;DHT22;32452;51.382;-0.002;2022-11-14T01:24:06;9.10;99.90
46720;DHT22;32452;51.382;-0.002;2022-11-14T01:26:54;9.10;99.90
46720;DHT22;32452;51.382;-0.002;2022-11-14T01:29:47;9.10;99.90
46720;DHT22;32452;51.382;-0.002;2022-11-14T01:32:33;9.10;99.90
46720;DHT22;32452;51.382;-0.002;2022-11-14T01:35:21;9.20;99.90
46720;DHT22;32452;51.382;-0.002;2022-11-14T01:38:12;9.20;99.90
46720;DHT22;32452;51.382;-0.002;2022-11-14T01:40:58;9.20;99.90
46720;DHT22;32452;51.382;-0.002;2022-11-14T01:43:43;9.20;99.90
46720;DHT22;32452;51.382;-0.002;2022-11-14T01:46:35;9.20;99.90
46720;DHT22;32452;51.382;-0.002;2022-11-14T01:49:27;9.20;99.90
46720;DHT22;32452;51.382;-0.002;2022-11-14T01:52:22;9.30;99.90
46720;DHT22;32452;51.382;-0.002;2022-11-14T01:55:09;9.30;99.90
46720;DHT22;32452;51.382;-0.002;2022-11-14T01:57:56;9.30;99.90
46720;DHT22;32452;51.382;-0.002;2022-11-14T02:00:45;9.40;99.90
46720;DHT22;32452;51.382;-0.002;2022-11-14T02:03:33;9.40;99.90
46720;DHT22;32452;51.382;-0.002;2022-11-14T02:06:21;9.40;99.90
46720;DHT22;32452;51.382;-0.002;2022-11-14T02:09:07;9.40;99.90
46720;DHT22;32452;51.382;-0.002;2022-11-14T02:11:55;9.50;99.90
46720;DHT22;32452;51.382;-0.002;2022-11-14T02:14:46;9.50;99.90
46720;DHT22;32452;51.382;-0.002;2022-11-14T02:17:32;9.50;99.90
46720;DHT22;32452;51.382;-0.002;2022-11-14T02:20:20;9.60;99.90
46720;DHT22;32452;51.382;-0.002;2022-11-14T02:23:10;9.60;99.90
46720;DHT22;32452;51.382;-0.002;2022-11-14T02:25:58;9.60;99.90
46720;DHT22;32452;51.382;-0.002;2022-11-14T02:28:44;9.70;99.90
46720;DHT22;32452;51.382;-0.002;2022-11-14T02:31:33;9.70;99.90
46720;DHT22;32452;51.382;-0.002;2022-11-14T02:34:47;9.70;99.90
46720;DHT22;32452;51.382;-0.002;2022-11-14T02:37:44;9.70;99.90
46720;DHT22;32452;51.382;-0.002;2022-11-14T02:40:39;9.70;99.90
46720;DHT22;32452;51.382;-0.002;2022-11-14T02:43:27;9.70;99.90
46720;DHT22;32452;51.382;-0.002;2022-11-14T02:46:12;9.70;99.90
46720;DHT22;32452;51.382;-0.002;2022-11-14T02:48:58;9.70;99.90
46720;DHT22;32452;51.382;-0.002;2022-11-14T02:51:43;9.70;99.90
46720;DHT22;32452;51.382;-0.002;2022-11-14T02:54:29;9.70;99.90
46720;DHT22;32452;51.382;-0.002;2022-11-14T02:57:22;9.70;99.90
46720;DHT22;32452;51.382;-0.002;2022-11-14T03:00:19;9.70;99.90
46720;DHT22;32452;51.382;-0.002;2022-11-14T03:03:13;9.70;99.90
46720;DHT22;32452;51.382;-0.002;2022-11-14T03:06:02;9.70;99.90
46720;DHT22;32452;51.382;-0.002;2022-11-14T03:08:48;9.70;99.90
46720;DHT22;32452;51.382;-0.002;2022-11-14T03:11:34;9.60;99.90
46720;DHT22;32452;51.382;-0.002;2022-11-14T03:14:19;9.60;99.90
46720;DHT22;32452;51.382;-0.002;2022-11-14T03:17:06;9.60;99.90
46720;DHT22;32452;51.382;-0.002;2022-11-14T03:19:56;9.60;99.90
46720;DHT22;32452;51.382;-0.002;2022-11-14T03:22:42;9.60;99.90
46720;DHT22;32452;51.382;-0.002;2022-11-14T03:25:27;9.60;99.90
46720;DHT22;32452;51.382;-0.002;2022-11-14T03:28:28;9.60;99.90
46720;DHT22;32452;51.382;-0.002;2022-11-14T03:31:23;9.50;99.90
46720;DHT22;32452;51.382;-0.002;2022-11-14T03:34:09;9.50;99.90
46720;DHT22;32452;51.382;-0.002;2022-11-14T03:36:56;9.50;99.90
46720;DHT22;32452;51.382;-0.002;2022-11-14T03:39:50;9.50;99.90
46720;DHT22;32452;51.382;-0.002;2022-11-14T03:42:42;9.50;99.90
46720;DHT22;32452;51.382;-0.002;2022-11-14T03:45:34;9.50;99.90
46720;DHT22;32452;51.382;-0.002;2022-11-14T03:48:20;9.50;99.90
46720;DHT22;32452;51.382;-0.002;2022-11-14T03:51:06;9.50;99.90
46720;DHT22;32452;51.382;-0.002;2022-11-14T03:53:55;9.50;99.90
46720;DHT22;32452;51.382;-0.002;2022-11-14T03:56:41;9.50;99.90
46720;DHT22;32452;51.382;-0.002;2022-11-14T03:59:38;9.40;99.90
46720;DHT22;32452;51.382;-0.002;2022-11-14T04:02:35;9.50;99.90
46720;DHT22;32452;51.382;-0.002;2022-11-14T04:05:21;9.50;99.90
46720;DHT22;32452;51.382;-0.002;2022-11-14T04:08:07;9.50;99.90
46720;DHT22;32452;51.382;-0.002;2022-11-14T04:10:52;9.50;99.90
46720;DHT22;32452;51.382;-0.002;2022-11-14T04:13:38;9.50;99.90
46720;DHT22;32452;51.382;-0.002;2022-11-14T04:16:23;9.60;99.90
46720;DHT22;32452;51.382;-0.002;2022-11-14T04:19:09;9.60;99.90
46720;DHT22;32452;51.382;-0.002;2022-11-14T04:21:55;9.70;99.90
46720;DHT22;32452;51.382;-0.002;2022-11-14T04:24:44;9.70;99.90
46720;DHT22;32452;51.382;-0.002;2022-11-14T04:27:29;9.70;99.90
46720;DHT22;32452;51.382;-0.002;2022-11-14T04:30:15;9.70;99.90
46720;DHT22;32452;51.382;-0.002;2022-11-14T04:33:00;9.70;99.90
46720;DHT22;32452;51.382;-0.002;2022-11-14T04:35:48;9.60;99.90
46720;DHT22;32452;51.382;-0.002;2022-11-14T04:38:41;9.60;99.90
46720;DHT22;32452;51.382;-0.002;2022-11-14T04:41:27;9.60;99.90
46720;DHT22;32452;51.382;-0.002;2022-11-14T04:44:16;9.60;99.90
46720;DHT22;32452;51.382;-0.002;2022-11-14T04:47:02;9.60;99.90
46720;DHT22;32452;51.382;-0.002;2022-11-14T04:49:47;9.60;99.90
46720;DHT22;32452;51.382;-0.002;2022-11-14T04:52:33;9.60;99.90
46720;DHT22;32452;51.382;-0.002;2022-11-14T04:55:18;9.60;99.90
46720;DHT22;32452;51.382;-0.002;2022-11-14T04:58:04;9.60;99.90
46720;DHT22;32452;51.382;-0.002;2022-11-14T05:00:50;9.60;99.90
46720;DHT22;32452;51.382;-0.002;2022-11-14T05:03:38;9.60;99.90
46720;DHT22;32452;51.382;-0.002;2022-11-14T05:06:26;9.60;99.90
46720;DHT22;32452;51.382;-0.002;2022-11-14T05:09:11;9.60;99.90
46720;DHT22;32452;51.382;-0.002;2022-11-14T05:11:57;9.60;99.90
46720;DHT22;32452;51.382;-0.002;2022-11-14T05:14:42;9.60;99.90
46720;DHT22;32452;51.382;-0.002;2022-11-14T05:17:28;9.60;99.90
46720;DHT22;32452;51.382;-0.002;2022-11-14T05:20:16;9.60;99.90
46720;DHT22;32452;51.382;-0.002;2022-11-14T05:23:24;9.70;99.90
46720;DHT22;32452;51.382;-0.002;2022-11-14T05:26:18;9.70;99.90
46720;DHT22;32452;51.382;-0.002;2022-11-14T05:29:03;9.70;99.90
46720;DHT22;32452;51.382;-0.002;2022-11-14T05:31:49;9.70;99.90
46720;DHT22;32452;51.382;-0.002;2022-11-14T05:34:34;9.70;99.90
46720;DHT22;32452;51.382;-0.002;2022-11-14T05:37:20;9.70;99.90
46720;DHT22;32452;51.382;-0.002;2022-11-14T05:40:06;9.70;99.90
46720;DHT22;32452;51.382;-0.002;2022-11-14T05:42:54;9.70;99.90
46720;DHT22;32452;51.382;-0.002;2022-11-14T05:45:39;9.70;99.90
46720;DHT22;32452;51.382;-0.002;2022-11-14T05:48:25;9.70;99.90
46720;DHT22;32452;51.382;-0.002;2022-11-14T05:51:12;9.60;99.90
46720;DHT22;32452;51.382;-0.002;2022-11-14T05:54:00;9.60;99.90
46720;DHT22;32452;51.382;-0.002;2022-11-14T05:56:49;9.60;99.90
46720;DHT22;32452;51.382;-0.002;2022-11-14T05:59:58;9.60;99.90
46720;DHT22;32452;51.382;-0.002;2022-11-14T06:02:43;9.60;99.90
46720;DHT22;32452;51.382;-0.002;2022-11-14T06:05:31;9.60;99.90
46720;DHT22;32452;51.382;-0.002;2022-11-14T06:08:27;9.60;99.90
46720;DHT22;32452;51.382;-0.002;2022-11-14T06:11:18;9.50;99.90
46720;DHT22;32452;51.382;-0.002;2022-11-14T06:14:04;9.50;99.90
46720;DHT22;32452;51.382;-0.002;2022-11-14T06:16:56;9.50;99.90
46720;DHT22;32452;51.382;-0.002;2022-11-14T06:19:42;9.50;99.90
46720;DHT22;32452;51.382;-0.002;2022-11-14T06:22:28;9.40;99.90
46720;DHT22;32452;51.382;-0.002;2022-11-14T06:25:14;9.40;99.90
46720;DHT22;32452;51.382;-0.002;2022-11-14T06:28:00;9.40;99.90
46720;DHT22;32452;51.382;-0.002;2022-11-14T06:31:03;9.30;99.90
46720;DHT22;32452;51.382;-0.002;2022-11-14T06:33:49;9.30;99.90
46720;DHT22;32452;51.382;-0.002;2022-11-14T06:36:35;9.20;99.90
46720;DHT22;32452;51.382;-0.002;2022-11-14T06:39:33;9.20;99.90
46720;DHT22;32452;51.382;-0.002;2022-11-14T06:42:24;9.20;99.90
46720;DHT22;32452;51.382;-0.002;2022-11-14T06:45:20;9.10;99.90
46720;DHT22;32452;51.382;-0.002;2022-11-14T06:48:12;9.10;99.90
46720;DHT22;32452;51.382;-0.002;2022-11-14T06:50:58;9.00;99.90
46720;DHT22;32452;51.382;-0.002;2022-11-14T06:53:44;9.00;99.90
46720;DHT22;32452;51.382;-0.002;2022-11-14T06:56:30;9.00;99.90
46720;DHT22;32452;51.382;-0.002;2022-11-14T06:59:27;9.00;99.90
46720;DHT22;32452;51.382;-0.002;2022-11-14T07:02:35;9.00;99.90
46720;DHT22;32452;51.382;-0.002;2022-11-14T07:05:20;8.90;99.90
46720;DHT22;32452;51.382;-0.002;2022-11-14T07:08:06;8.90;99.90
46720;DHT22;32452;51.382;-0.002;2022-11-14T07:10:52;8.90;99.90
46720;DHT22;32452;51.382;-0.002;2022-11-14T07:13:38;8.90;99.90
46720;DHT22;32452;51.382;-0.002;2022-11-14T07:16:33;8.80;99.90
46720;DHT22;32452;51.382;-0.002;2022-11-14T07:19:19;8.80;99.90
46720;DHT22;32452;51.382;-0.002;2022-11-14T07:22:05;8.80;99.90
46720;DHT22;32452;51.382;-0.002;2022-11-14T07:24:50;8.80;99.90
46720;DHT22;32452;51.382;-0.002;2022-11-14T07:27:35;8.80;99.90
46720;DHT22;32452;51.382;-0.002;2022-11-14T07:30:21;8.80;99.90
46720;DHT22;32452;51.382;-0.002;2022-11-14T07:33:07;8.70;99.90
46720;DHT22;32452;51.382;-0.002;2022-11-14T07:35:52;8.80;99.90
46720;DHT22;32452;51.382;-0.002;2022-11-14T07:38:38;8.70;99.90
46720;DHT22;32452;51.382;-0.002;2022-11-14T07:41:24;8.70;99.90
46720;DHT22;32452;51.382;-0.002;2022-11-14T07:44:09;8.80;99.90
46720;DHT22;32452;51.382;-0.002;2022-11-14T07:46:55;8.80;99.90
46720;DHT22;32452;51.382;-0.002;2022-11-14T07:49:41;8.80;99.90
46720;DHT22;32452;51.382;-0.002;2022-11-14T07:52:26;8.80;99.90
46720;DHT22;32452;51.382;-0.002;2022-11-14T07:55:12;8.80;99.90
46720;DHT22;32452;51.382;-0.002;2022-11-14T07:58:01;8.90;99.90
46720;DHT22;32452;51.382;-0.002;2022-11-14T08:00:46;8.90;99.90
46720;DHT22;32452;51.382;-0.002;2022-11-14T08:03:33;9.00;99.90
46720;DHT22;32452;51.382;-0.002;2022-11-14T08:06:18;9.00;99.90
46720;DHT22;32452;51.382;-0.002;2022-11-14T08:09:04;9.10;99.90
46720;DHT22;32452;51.382;-0.002;2022-11-14T08:11:49;9.10;99.90
46720;DHT22;32452;51.382;-0.002;2022-11-14T08:14:35;9.10;99.90
46720;DHT22;32452;51.382;-0.002;2022-11-14T08:17:22;9.20;99.90
46720;DHT22;32452;51.382;-0.002;2022-11-14T08:20:08;9.30;99.90
46720;DHT22;32452;51.382;-0.002;2022-11-14T08:23:00;9.40;99.90
46720;DHT22;32452;51.382;-0.002;2022-11-14T08:25:46;9.50;99.90
46720;DHT22;32452;51.382;-0.002;2022-11-14T08:28:32;9.60;99.90
46720;DHT22;32452;51.382;-0.002;2022-11-14T08:31:18;9.70;99.90
46720;DHT22;32452;51.382;-0.002;2022-11-14T08:34:03;9.80;99.90
46720;DHT22;32452;51.382;-0.002;2022-11-14T08:36:49;9.80;99.90
46720;DHT22;32452;51.382;-0.002;2022-11-14T08:39:35;9.90;99.90
46720;DHT22;32452;51.382;-0.002;2022-11-14T08:42:20;10.10;99.90
46720;DHT22;32452;51.382;-0.002;2022-11-14T08:45:06;10.10;99.90
46720;DHT22;32452;51.382;-0.002;2022-11-14T08:47:52;10.20;99.90
46720;DHT22;32452;51.382;-0.002;2022-11-14T08:50:38;10.20;99.90
46720;DHT22;32452;51.382;-0.002;2022-11-14T08:53:23;10.30;99.90
46720;DHT22;32452;51.382;-0.002;2022-11-14T08:56:10;10.30;99.90
46720;DHT22;32452;51.382;-0.002;2022-11-14T08:58:55;10.30;99.90
46720;DHT22;32452;51.382;-0.002;2022-11-14T09:01:41;10.30;99.90
46720;DHT22;32452;51.382;-0.002;2022-11-14T09:04:26;10.30;99.90
46720;DHT22;32452;51.382;-0.002;2022-11-14T09:07:12;10.30;99.90
46720;DHT22;32452;51.382;-0.002;2022-11-14T09:09:58;10.40;99.90
46720;DHT22;32452;51.382;-0.002;2022-11-14T09:12:43;10.50;99.90
46720;DHT22;32452;51.382;-0.002;2022-11-14T09:15:29;10.50;99.90
46720;DHT22;32452;51.382;-0.002;2022-11-14T09:18:14;10.50;99.90
46720;DHT22;32452;51.382;-0.002;2022-11-14T09:21:04;10.60;99.90
46720;DHT22;32452;51.382;-0.002;2022-11-14T09:23:50;10.60;99.90
46720;DHT22;32452;51.382;-0.002;2022-11-14T09:26:35;10.60;99.90
46720;DHT22;32452;51.382;-0.002;2022-11-14T09:29:21;10.70;99.90
46720;DHT22;32452;51.382;-0.002;2022-11-14T09:32:06;10.70;99.90
46720;DHT22;32452;51.382;-0.002;2022-11-14T09:34:52;10.80;99.90
46720;DHT22;32452;51.382;-0.002;2022-11-14T09:37:38;10.80;99.90
46720;DHT22;32452;51.382;-0.002;2022-11-14T09:40:23;10.90;99.90
46720;DHT22;32452;51.382;-0.002;2022-11-14T09:46:42;11.00;99.90
46720;DHT22;32452;51.382;-0.002;2022-11-14T09:52:38;11.00;99.90
46720;DHT22;32452;51.382;-0.002;2022-11-14T09:55:29;11.10;99.90
46720;DHT22;32452;51.382;-0.002;2022-11-14T09:58:21;11.10;99.90
46720;DHT22;32452;51.382;-0.002;2022-11-14T10:04:37;11.20;99.90
46720;DHT22;32452;51.382;-0.002;2022-11-14T10:23:48;11.60;99.90
46720;DHT22;32452;51.382;-0.002;2022-11-14T10:26:54;11.70;99.90
46720;DHT22;32452;51.382;-0.002;2022-11-14T10:36:04;11.90;99.90
46720;DHT22;32452;51.382;-0.002;2022-11-14T10:39:02;12.00;99.90
46720;DHT22;32452;51.382;-0.002;2022-11-14T10:41:52;12.20;99.90
46720;DHT22;32452;51.382;-0.002;2022-11-14T10:48:18;12.30;99.90
46720;DHT22;32452;51.382;-0.002;2022-11-14T10:54:12;12.40;99.90
46720;DHT22;32452;51.382;-0.002;2022-11-14T10:57:01;12.50;99.90
46720;DHT22;32452;51.382;-0.002;2022-11-14T10:59:47;12.50;99.90
46720;DHT22;32452;51.382;-0.002;2022-11-14T11:02:54;12.50;99.90
46720;DHT22;32452;51.382;-0.002;2022-11-14T11:05:46;12.60;99.90
46720;DHT22;32452;51.382;-0.002;2022-11-14T11:08:40;12.60;99.90
46720;DHT22;32452;51.382;-0.002;2022-11-14T11:11:53;12.70;99.90
46720;DHT22;32452;51.382;-0.002;2022-11-14T11:14:39;12.80;99.90
46720;DHT22;32452;51.382;-0.002;2022-11-14T11:17:24;12.80;99.90
46720;DHT22;32452;51.382;-0.002;2022-11-14T11:20:36;12.90;99.90
46720;DHT22;32452;51.382;-0.002;2022-11-14T11:23:25;12.90;99.90
46720;DHT22;32452;51.382;-0.002;2022-11-14T11:26:30;13.00;99.90
46720;DHT22;32452;51.382;-0.002;2022-11-14T11:29:18;13.00;99.90
46720;DHT22;32452;51.382;-0.002;2022-11-14T11:32:03;13.00;99.90
46720;DHT22;32452;51.382;-0.002;2022-11-14T11:34:50;13.10;99.90
46720;DHT22;32452;51.382;-0.002;2022-11-14T11:38:00;13.20;99.90
46720;DHT22;32452;51.382;-0.002;2022-11-14T11:40:53;13.20;99.90
46720;DHT22;32452;51.382;-0.002;2022-11-14T11:43:54;13.30;99.90
46720;DHT22;32452;51.382;-0.002;2022-11-14T11:46:59;13.30;99.90
46720;DHT22;32452;51.382;-0.002;2022-11-14T11:49:50;13.40;99.90
46720;DHT22;32452;51.382;-0.002;2022-11-14T11:55:40;13.50;99.90
46720;DHT22;32452;51.382;-0.002;2022-11-14T12:01:34;13.50;99.90
46720;DHT22;32452;51.382;-0.002;2022-11-14T12:04:19;13.50;99.90
46720;DHT22;32452;51.382;-0.002;2022-11-14T12:07:15;13.50;99.90
46720;DHT22;32452;51.382;-0.002;2022-11-14T12:10:11;13.50;99.90
46720;DHT22;32452;51.382;-0.002;2022-11-14T12:23:29;13.50;99.90
46720;DHT22;32452;51.382;-0.002;2022-11-14T12:31:44;13.80;99.90
46720;DHT22;32452;51.382;-0.002;2022-11-14T12:34:39;13.80;99.90
46720;DHT22;32452;51.382;-0.002;2022-11-14T12:37:41;13.80;99.90
46720;DHT22;32452;51.382;-0.002;2022-11-14T12:40:34;13.80;99.90
46720;DHT22;32452;51.382;-0.002;2022-11-14T12:46:20;13.80;99.90
46720;DHT22;32452;51.382;-0.002;2022-11-14T12:49:35;13.80;99.90
46720;DHT22;32452;51.382;-0.002;2022-11-14T13:11:39;15.20;99.90
46720;DHT22;32452;51.382;-0.002;2022-11-14T13:14:49;15.70;99.90
46720;DHT22;32452;51.382;-0.002;2022-11-14T13:18:17;16.20;99.90
46720;DHT22;32452;51.382;-0.002;2022-11-14T13:21:25;16.60;99.90
46720;DHT22;32452;51.382;-0.002;2022-11-14T13:25:14;17.00;99.90
46720;DHT22;32452;51.382;-0.002;2022-11-14T13:29:05;17.40;99.90
46720;DHT22;32452;51.382;-0.002;2022-11-14T13:31:43;17.60;99.90
46720;DHT22;32452;51.382;-0.002;2022-11-14T13:34:56;17.70;99.90
46720;DHT22;32452;51.382;-0.002;2022-11-14T13:40:48;17.40;99.90
46720;DHT22;32452;51.382;-0.002;2022-11-14T13:50:10;17.70;99.90
46720;DHT22;32452;51.382;-0.002;2022-11-14T13:52:56;17.90;99.90
46720;DHT22;32452;51.382;-0.002;2022-11-14T14:02:15;18.20;99.90
46720;DHT22;32452;51.382;-0.002;2022-11-14T14:11:37;17.40;99.90
46720;DHT22;32452;51.382;-0.002;2022-11-14T14:17:31;16.80;99.90
46720;DHT22;32452;51.382;-0.002;2022-11-14T14:20:34;16.60;99.90
46720;DHT22;32452;51.382;-0.002;2022-11-14T14:26:31;16.20;99.90
46720;DHT22;32452;51.382;-0.002;2022-11-14T14:32:14;15.90;99.90
46720;DHT22;32452;51.382;-0.002;2022-11-14T14:35:19;15.70;99.90
46720;DHT22;32452;51.382;-0.002;2022-11-14T14:38:11;15.60;99.90
46720;DHT22;32452;51.382;-0.002;2022-11-14T14:40:57;15.50;99.90
46720;DHT22;32452;51.382;-0.002;2022-11-14T14:43:50;15.50;99.90
46720;DHT22;32452;51.382;-0.002;2022-11-14T14:46:36;15.50;99.90
46720;DHT22;32452;51.382;-0.002;2022-11-14T14:49:35;15.50;99.90
46720;DHT22;32452;51.382;-0.002;2022-11-14T14:55:22;15.20;99.90
46720;DHT22;32452;51.382;-0.002;2022-11-14T15:01:15;15.10;99.90
46720;DHT22;32452;51.382;-0.002;2022-11-14T15:04:06;15.00;99.90
46720;DHT22;32452;51.382;-0.002;2022-11-14T15:06:52;14.90;99.90
46720;DHT22;32452;51.382;-0.002;2022-11-14T15:09:51;14.80;99.90
46720;DHT22;32452;51.382;-0.002;2022-11-14T15:12:39;14.80;99.90
46720;DHT22;32452;51.382;-0.002;2022-11-14T15:15:26;14.70;99.90
46720;DHT22;32452;51.382;-0.002;2022-11-14T15:18:24;14.70;99.90
46720;DHT22;32452;51.382;-0.002;2022-11-14T15:24:19;14.60;99.90
46720;DHT22;32452;51.382;-0.002;2022-11-14T15:27:17;14.60;99.90
46720;DHT22;32452;51.382;-0.002;2022-11-14T15:30:06;14.50;99.90
46720;DHT22;32452;51.382;-0.002;2022-11-14T15:33:05;14.40;99.90
46720;DHT22;32452;51.382;-0.002;2022-11-14T15:36:11;14.40;99.90
46720;DHT22;32452;51.382;-0.002;2022-11-14T15:39:18;14.40;99.90
46720;DHT22;32452;51.382;-0.002;2022-11-14T15:42:12;14.30;99.90
46720;DHT22;32452;51.382;-0.002;2022-11-14T15:44:58;14.30;99.90
46720;DHT22;32452;51.382;-0.002;2022-11-14T15:47:44;14.30;99.90
46720;DHT22;32452;51.382;-0.002;2022-11-14T15:50:31;14.30;99.90
46720;DHT22;32452;51.382;-0.002;2022-11-14T15:53:23;14.30;99.90
46720;DHT22;32452;51.382;-0.002;2022-11-14T15:56:13;14.20;99.90
46720;DHT22;32452;51.382;-0.002;2022-11-14T15:58:59;14.20;99.90
46720;DHT22;32452;51.382;-0.002;2022-11-14T16:01:48;14.10;99.90
46720;DHT22;32452;51.382;-0.002;2022-11-14T16:04:35;14.10;99.90
46720;DHT22;32452;51.382;-0.002;2022-11-14T16:07:21;14.10;99.90
46720;DHT22;32452;51.382;-0.002;2022-11-14T16:10:21;14.00;99.90
46720;DHT22;32452;51.382;-0.002;2022-11-14T16:13:07;14.00;99.90
46720;DHT22;32452;51.382;-0.002;2022-11-14T16:15:53;13.90;99.90
46720;DHT22;32452;51.382;-0.002;2022-11-14T16:18:38;13.90;99.90
46720;DHT22;32452;51.382;-0.002;2022-11-14T16:21:24;13.90;99.90
46720;DHT22;32452;51.382;-0.002;2022-11-14T16:24:16;13.80;99.90
46720;DHT22;32452;51.382;-0.002;2022-11-14T16:27:02;13.80;99.90
46720;DHT22;32452;51.382;-0.002;2022-11-14T16:29:47;13.80;99.90
46720;DHT22;32452;51.382;-0.002;2022-11-14T16:32:33;13.80;99.90
46720;DHT22;32452;51.382;-0.002;2022-11-14T16:35:21;13.70;99.90
46720;DHT22;32452;51.382;-0.002;2022-11-14T16:38:10;13.80;99.90
46720;DHT22;32452;51.382;-0.002;2022-11-14T16:40:56;13.70;99.90
46720;DHT22;32452;51.382;-0.002;2022-11-14T16:43:44;13.70;99.90
46720;DHT22;32452;51.382;-0.002;2022-11-14T16:46:29;13.70;99.90
46720;DHT22;32452;51.382;-0.002;2022-11-14T16:49:16;13.80;99.90
46720;DHT22;32452;51.382;-0.002;2022-11-14T16:52:02;13.80;99.90
46720;DHT22;32452;51.382;-0.002;2022-11-14T16:54:52;13.80;99.90
46720;DHT22;32452;51.382;-0.002;2022-11-14T16:57:39;13.70;99.90
46720;DHT22;32452;51.382;-0.002;2022-11-14T17:00:24;13.70;99.90
46720;DHT22;32452;51.382;-0.002;2022-11-14T17:03:10;13.70;99.90
46720;DHT22;32452;51.382;-0.002;2022-11-14T17:05:55;13.70;99.90
46720;DHT22;32452;51.382;-0.002;2022-11-14T17:08:40;13.70;99.90
46720;DHT22;32452;51.382;-0.002;2022-11-14T17:11:26;13.70;99.90
46720;DHT22;32452;51.382;-0.002;2022-11-14T17:14:12;13.80;99.90
46720;DHT22;32452;51.382;-0.002;2022-11-14T17:16:58;13.70;99.90
46720;DHT22;32452;51.382;-0.002;2022-11-14T17:19:46;13.70;99.90
46720;DHT22;32452;51.382;-0.002;2022-11-14T17:22:32;13.70;99.90
46720;DHT22;32452;51.382;-0.002;2022-11-14T17:25:18;13.70;99.90
46720;DHT22;32452;51.382;-0.002;2022-11-14T17:28:03;13.70;99.90
46720;DHT22;32452;51.382;-0.002;2022-11-14T17:30:49;13.70;99.90
46720;DHT22;32452;51.382;-0.002;2022-11-14T17:33:35;13.70;99.90
46720;DHT22;32452;51.382;-0.002;2022-11-14T17:36:24;13.70;99.90
46720;DHT22;32452;51.382;-0.002;2022-11-14T17:39:09;13.70;99.90
46720;DHT22;32452;51.382;-0.002;2022-11-14T17:41:55;13.70;99.90
46720;DHT22;32452;51.382;-0.002;2022-11-14T17:44:40;13.60;99.90
46720;DHT22;32452;51.382;-0.002;2022-11-14T17:47:27;13.60;99.90
46720;DHT22;32452;51.382;-0.002;2022-11-14T17:50:12;13.50;99.90
46720;DHT22;32452;51.382;-0.002;2022-11-14T17:52:58;13.40;99.90
46720;DHT22;32452;51.382;-0.002;2022-11-14T17:55:43;13.40;99.90
46720;DHT22;32452;51.382;-0.002;2022-11-14T17:58:30;13.30;99.90
46720;DHT22;32452;51.382;-0.002;2022-11-14T18:01:19;13.30;99.90
46720;DHT22;32452;51.382;-0.002;2022-11-14T18:04:04;13.20;99.90
46720;DHT22;32452;51.382;-0.002;2022-11-14T18:06:51;13.20;99.90
46720;DHT22;32452;51.382;-0.002;2022-11-14T18:09:37;13.10;99.90
46720;DHT22;32452;51.382;-0.002;2022-11-14T18:12:23;13.10;99.90
46720;DHT22;32452;51.382;-0.002;2022-11-14T18:15:09;13.00;99.90
46720;DHT22;32452;51.382;-0.002;2022-11-14T18:17:55;13.00;99.90
46720;DHT22;32452;51.382;-0.002;2022-11-14T18:20:40;12.90;99.90
46720;DHT22;32452;51.382;-0.002;2022-11-14T18:23:26;12.90;99.90
46720;DHT22;32452;51.382;-0.002;2022-11-14T18:26:15;12.90;99.90
46720;DHT22;32452;51.382;-0.002;2022-11-14T18:29:01;12.90;99.90
46720;DHT22;32452;51.382;-0.002;2022-11-14T18:31:47;13.00;99.90
46720;DHT22;32452;51.382;-0.002;2022-11-14T18:34:33;13.00;99.90
46720;DHT22;32452;51.382;-0.002;2022-11-14T18:37:21;13.00;99.90
46720;DHT22;32452;51.382;-0.002;2022-11-14T18:40:07;13.10;99.90
46720;DHT22;32452;51.382;-0.002;2022-11-14T18:43:00;13.10;99.90
46720;DHT22;32452;51.382;-0.002;2022-11-14T18:45:45;13.20;99.90
46720;DHT22;32452;51.382;-0.002;2022-11-14T18:48:31;13.20;99.90
46720;DHT22;32452;51.382;-0.002;2022-11-14T18:51:19;13.20;99.90
46720;DHT22;32452;51.382;-0.002;2022-11-14T18:54:07;13.20;99.90
46720;DHT22;32452;51.382;-0.002;2022-11-14T18:56:53;13.30;99.90
46720;DHT22;32452;51.382;-0.002;2022-11-14T18:59:39;13.30;99.90
46720;DHT22;32452;51.382;-0.002;2022-11-14T19:02:24;13.30;99.90
46720;DHT22;32452;51.382;-0.002;2022-11-14T19:05:10;13.30;99.90
46720;DHT22;32452;51.382;-0.002;2022-11-14T19:07:55;13.30;99.90
46720;DHT22;32452;51.382;-0.002;2022-11-14T19:10:41;13.30;99.90
46720;DHT22;32452;51.382;-0.002;2022-11-14T19:13:26;13.30;99.90
46720;DHT22;32452;51.382;-0.002;2022-11-14T19:16:12;13.30;99.90
46720;DHT22;32452;51.382;-0.002;2022-11-14T19:18:59;13.30;99.90
46720;DHT22;32452;51.382;-0.002;2022-11-14T19:21:47;13.30;99.90
46720;DHT22;32452;51.382;-0.002;2022-11-14T19:24:33;13.30;99.90
46720;DHT22;32452;51.382;-0.002;2022-11-14T19:27:18;13.30;99.90
46720;DHT22;32452;51.382;-0.002;2022-11-14T19:30:06;13.30;99.90
46720;DHT22;32452;51.382;-0.002;2022-11-14T19:32:52;13.30;99.90
46720;DHT22;32452;51.382;-0.002;2022-11-14T19:35:37;13.30;99.90
46720;DHT22;32452;51.382;-0.002;2022-11-14T19:38:23;13.30;99.90
46720;DHT22;32452;51.382;-0.002;2022-11-14T19:41:15;13.30;99.90
46720;DHT22;32452;51.382;-0.002;2022-11-14T19:44:01;13.30;99.90